sensor_id;sensor_type;location;lat;lon;timestamp;P1;durP1;ratioP1;P2;durP2;ratioP2
41139;SDS011;26881;48.784;9.192;2023-11-21T00:01:11;7.65;;;2.17;;
41139;SDS011;26881;48.784;9.192;2023-11-21T00:06:33;9.03;;;2.10;;
41139;SDS011;26881;48.784;9.192;2023-11-21T00:11:55;10.77;;;2.43;;
41139;SDS011;26881;48.784;9.192;2023-11-21T00:17:17;5.78;;;2.55;;
41139;SDS011;26881;48.784;9.192;2023-11-21T00:22:39;9.73;;;2.23;;
41139;SDS011;26881;48.784;9.192;2023-11-21T00:28:02;9.10;;;1.93;;
41139;SDS011;26881;48.784;9.192;2023-11-21T00:33:24;6.53;;;1.85;;
41139;SDS011;26881;48.784;9.192;2023-11-21T00:38:47;8.40;;;1.90;;
41139;SDS011;26881;48.784;9.192;2023-11-21T00:44:09;7.45;;;2.00;;
41139;SDS011;26881;48.784;9.192;2023-11-21T00:49:31;10.15;;;1.95;;
41139;SDS011;26881;48.784;9.192;2023-11-21T00:54:54;7.55;;;1.80;;
41139;SDS011;26881;48.784;9.192;2023-11-21T01:00:15;7.43;;;2.10;;
41139;SDS011;26881;48.784;9.192;2023-11-21T01:05:40;7.82;;;2.00;;
41139;SDS011;26881;48.784;9.192;2023-11-21T01:11:02;5.97;;;1.80;;
41139;SDS011;26881;48.784;9.192;2023-11-21T01:16:24;8.07;;;1.60;;
41139;SDS011;26881;48.784;9.192;2023-11-21T01:21:46;6.25;;;1.33;;
41139;SDS011;26881;48.784;9.192;2023-11-21T01:27:08;3.83;;;1.73;;
41139;SDS011;26881;48.784;9.192;2023-11-21T01:32:30;5.15;;;1.80;;
41139;SDS011;26881;48.784;9.192;2023-11-21T01:37:52;6.57;;;1.88;;
41139;SDS011;26881;48.784;9.192;2023-11-21T01:43:15;4.90;;;1.50;;
41139;SDS011;26881;48.784;9.192;2023-11-21T01:48:37;9.17;;;2.03;;
41139;SDS011;26881;48.784;9.192;2023-11-21T01:53:59;2.63;;;1.27;;
41139;SDS011;26881;48.784;9.192;2023-11-21T01:59:21;5.33;;;1.80;;
41139;SDS011;26881;48.784;9.192;2023-11-21T02:04:44;4.27;;;1.70;;
41139;SDS011;26881;48.784;9.192;2023-11-21T02:10:07;4.43;;;1.27;;
41139;SDS011;26881;48.784;9.192;2023-11-21T02:15:29;5.20;;;2.33;;
41139;SDS011;26881;48.784;9.192;2023-11-21T02:20:51;4.35;;;1.48;;
41139;SDS011;26881;48.784;9.192;2023-11-21T02:26:13;3.63;;;1.40;;
41139;SDS011;26881;48.784;9.192;2023-11-21T02:31:35;3.95;;;1.08;;
41139;SDS011;26881;48.784;9.192;2023-11-21T02:36:57;5.93;;;1.87;;
41139;SDS011;26881;48.784;9.192;2023-11-21T02:42:19;2.53;;;1.10;;
41139;SDS011;26881;48.784;9.192;2023-11-21T02:47:41;4.38;;;1.20;;
41139;SDS011;26881;48.784;9.192;2023-11-21T02:53:03;4.63;;;1.13;;
41139;SDS011;26881;48.784;9.192;2023-11-21T02:58:27;4.32;;;1.10;;
41139;SDS011;26881;48.784;9.192;2023-11-21T03:03:49;3.33;;;1.00;;
41139;SDS011;26881;48.784;9.192;2023-11-21T03:09:12;3.90;;;1.10;;
41139;SDS011;26881;48.784;9.192;2023-11-21T03:14:34;2.40;;;1.27;;
41139;SDS011;26881;48.784;9.192;2023-11-21T03:19:56;2.47;;;1.00;;
41139;SDS011;26881;48.784;9.192;2023-11-21T03:25:18;2.67;;;1.20;;
41139;SDS011;26881;48.784;9.192;2023-11-21T03:30:40;3.00;;;1.20;;
41139;SDS011;26881;48.784;9.192;2023-11-21T03:36:02;2.90;;;1.13;;
41139;SDS011;26881;48.784;9.192;2023-11-21T03:41:25;2.40;;;1.17;;
41139;SDS011;26881;48.784;9.192;2023-11-21T03:46:47;1.80;;;0.90;;
41139;SDS011;26881;48.784;9.192;2023-11-21T03:52:09;2.07;;;0.83;;
41139;SDS011;26881;48.784;9.192;2023-11-21T03:57:31;1.70;;;0.90;;
41139;SDS011;26881;48.784;9.192;2023-11-21T04:02:53;3.30;;;0.80;;
41139;SDS011;26881;48.784;9.192;2023-11-21T04:08:15;1.53;;;0.73;;
41139;SDS011;26881;48.784;9.192;2023-11-21T04:13:37;2.30;;;0.90;;
41139;SDS011;26881;48.784;9.192;2023-11-21T04:19:00;1.90;;;0.83;;
41139;SDS011;26881;48.784;9.192;2023-11-21T04:24:22;3.13;;;0.90;;
41139;SDS011;26881;48.784;9.192;2023-11-21T04:29:44;1.73;;;0.90;;
41139;SDS011;26881;48.784;9.192;2023-11-21T04:35:06;1.20;;;0.80;;
41139;SDS011;26881;48.784;9.192;2023-11-21T04:40:28;1.27;;;0.70;;
41139;SDS011;26881;48.784;9.192;2023-11-21T04:45:50;0.87;;;0.63;;
41139;SDS011;26881;48.784;9.192;2023-11-21T04:51:12;1.90;;;1.00;;
41139;SDS011;26881;48.784;9.192;2023-11-21T04:56:34;1.33;;;0.80;;
41139;SDS011;26881;48.784;9.192;2023-11-21T05:01:56;3.93;;;0.80;;
41139;SDS011;26881;48.784;9.192;2023-11-21T05:07:18;1.67;;;0.83;;
41139;SDS011;26881;48.784;9.192;2023-11-21T05:12:40;0.97;;;0.70;;
41139;SDS011;26881;48.784;9.192;2023-11-21T05:18:03;2.33;;;0.83;;
41139;SDS011;26881;48.784;9.192;2023-11-21T05:23:24;1.57;;;0.70;;
41139;SDS011;26881;48.784;9.192;2023-11-21T05:28:46;1.47;;;0.97;;
41139;SDS011;26881;48.784;9.192;2023-11-21T05:34:08;2.23;;;1.00;;
41139;SDS011;26881;48.784;9.192;2023-11-21T05:39:30;3.37;;;1.60;;
41139;SDS011;26881;48.784;9.192;2023-11-21T05:44:52;4.53;;;1.30;;
41139;SDS011;26881;48.784;9.192;2023-11-21T05:50:15;3.83;;;1.63;;
41139;SDS011;26881;48.784;9.192;2023-11-21T05:55:37;1.93;;;1.20;;
41139;SDS011;26881;48.784;9.192;2023-11-21T06:01:01;3.23;;;1.70;;
41139;SDS011;26881;48.784;9.192;2023-11-21T06:06:22;2.27;;;1.13;;
41139;SDS011;26881;48.784;9.192;2023-11-21T06:11:46;2.00;;;1.00;;
41139;SDS011;26881;48.784;9.192;2023-11-21T06:17:08;2.27;;;1.20;;
41139;SDS011;26881;48.784;9.192;2023-11-21T06:22:31;2.60;;;1.43;;
41139;SDS011;26881;48.784;9.192;2023-11-21T06:27:53;4.17;;;1.70;;
41139;SDS011;26881;48.784;9.192;2023-11-21T06:33:15;1.30;;;1.20;;
41139;SDS011;26881;48.784;9.192;2023-11-21T06:38:37;1.77;;;0.90;;
41139;SDS011;26881;48.784;9.192;2023-11-21T06:43:59;3.70;;;1.43;;
41139;SDS011;26881;48.784;9.192;2023-11-21T06:49:21;1.73;;;1.10;;
41139;SDS011;26881;48.784;9.192;2023-11-21T06:54:44;1.00;;;0.87;;
41139;SDS011;26881;48.784;9.192;2023-11-21T07:00:07;2.80;;;1.30;;
41139;SDS011;26881;48.784;9.192;2023-11-21T07:05:33;3.63;;;1.10;;
41139;SDS011;26881;48.784;9.192;2023-11-21T07:10:54;1.53;;;1.30;;
41139;SDS011;26881;48.784;9.192;2023-11-21T07:16:16;5.07;;;1.93;;
41139;SDS011;26881;48.784;9.192;2023-11-21T07:21:38;2.07;;;1.30;;
41139;SDS011;26881;48.784;9.192;2023-11-21T07:27:01;4.00;;;1.60;;
41139;SDS011;26881;48.784;9.192;2023-11-21T07:32:23;4.00;;;1.77;;
41139;SDS011;26881;48.784;9.192;2023-11-21T07:37:44;5.00;;;1.80;;
41139;SDS011;26881;48.784;9.192;2023-11-21T07:43:08;2.70;;;1.80;;
41139;SDS011;26881;48.784;9.192;2023-11-21T07:48:30;3.43;;;2.30;;
41139;SDS011;26881;48.784;9.192;2023-11-21T07:53:52;2.90;;;1.83;;
41139;SDS011;26881;48.784;9.192;2023-11-21T07:59:14;2.73;;;2.43;;
41139;SDS011;26881;48.784;9.192;2023-11-21T08:04:36;7.80;;;4.50;;
41139;SDS011;26881;48.784;9.192;2023-11-21T08:09:58;6.80;;;3.87;;
41139;SDS011;26881;48.784;9.192;2023-11-21T08:15:20;6.33;;;4.07;;
41139;SDS011;26881;48.784;9.192;2023-11-21T08:20:42;5.33;;;2.90;;
41139;SDS011;26881;48.784;9.192;2023-11-21T08:26:05;3.30;;;1.30;;
41139;SDS011;26881;48.784;9.192;2023-11-21T08:31:27;5.43;;;1.63;;
41139;SDS011;26881;48.784;9.192;2023-11-21T08:36:50;2.27;;;1.60;;
41139;SDS011;26881;48.784;9.192;2023-11-21T08:42:12;3.28;;;1.25;;
41139;SDS011;26881;48.784;9.192;2023-11-21T08:47:35;3.07;;;1.67;;
41139;SDS011;26881;48.784;9.192;2023-11-21T08:52:58;3.25;;;1.40;;
41139;SDS011;26881;48.784;9.192;2023-11-21T08:58:19;2.65;;;1.45;;
41139;SDS011;26881;48.784;9.192;2023-11-21T09:03:41;2.30;;;1.10;;
41139;SDS011;26881;48.784;9.192;2023-11-21T09:09:05;1.75;;;1.08;;
41139;SDS011;26881;48.784;9.192;2023-11-21T09:14:27;5.05;;;1.55;;
41139;SDS011;26881;48.784;9.192;2023-11-21T09:19:50;1.60;;;1.35;;
41139;SDS011;26881;48.784;9.192;2023-11-21T09:25:13;4.55;;;1.65;;
41139;SDS011;26881;48.784;9.192;2023-11-21T09:30:35;3.67;;;1.90;;
41139;SDS011;26881;48.784;9.192;2023-11-21T09:35:57;3.58;;;1.10;;
41139;SDS011;26881;48.784;9.192;2023-11-21T09:41:21;1.67;;;1.20;;
41139;SDS011;26881;48.784;9.192;2023-11-21T09:46:52;2.22;;;1.20;;
41139;SDS011;26881;48.784;9.192;2023-11-21T09:52:18;4.22;;;0.93;;
41139;SDS011;26881;48.784;9.192;2023-11-21T09:57:49;1.33;;;1.10;;
41139;SDS011;26881;48.784;9.192;2023-11-21T10:03:11;3.80;;;0.88;;
41139;SDS011;26881;48.784;9.192;2023-11-21T10:08:34;1.70;;;1.00;;
41139;SDS011;26881;48.784;9.192;2023-11-21T10:14:11;1.67;;;1.30;;
41139;SDS011;26881;48.784;9.192;2023-11-21T10:19:35;2.72;;;1.35;;
41139;SDS011;26881;48.784;9.192;2023-11-21T10:24:58;3.95;;;1.52;;
41139;SDS011;26881;48.784;9.192;2023-11-21T10:30:20;3.25;;;1.70;;
41139;SDS011;26881;48.784;9.192;2023-11-21T10:35:48;2.33;;;1.33;;
41139;SDS011;26881;48.784;9.192;2023-11-21T10:41:16;0.93;;;0.60;;
41139;SDS011;26881;48.784;9.192;2023-11-21T10:46:39;2.45;;;0.80;;
41139;SDS011;26881;48.784;9.192;2023-11-21T10:52:04;1.60;;;0.80;;
41139;SDS011;26881;48.784;9.192;2023-11-21T10:57:26;0.93;;;0.68;;
41139;SDS011;26881;48.784;9.192;2023-11-21T11:02:50;0.30;;;0.30;;
41139;SDS011;26881;48.784;9.192;2023-11-21T11:08:13;0.75;;;0.60;;
41139;SDS011;26881;48.784;9.192;2023-11-21T11:13:42;0.63;;;0.60;;
41139;SDS011;26881;48.784;9.192;2023-11-21T11:19:07;0.50;;;0.50;;
41139;SDS011;26881;48.784;9.192;2023-11-21T11:36:13;1.15;;;0.73;;
41139;SDS011;26881;48.784;9.192;2023-11-21T11:41:38;1.70;;;0.82;;
41139;SDS011;26881;48.784;9.192;2023-11-21T11:47:01;1.25;;;1.15;;
41139;SDS011;26881;48.784;9.192;2023-11-21T11:58:04;1.67;;;1.13;;
41139;SDS011;26881;48.784;9.192;2023-11-21T12:03:27;0.95;;;0.90;;
41139;SDS011;26881;48.784;9.192;2023-11-21T12:08:50;1.20;;;1.20;;
41139;SDS011;26881;48.784;9.192;2023-11-21T12:14:13;1.25;;;1.13;;
41139;SDS011;26881;48.784;9.192;2023-11-21T12:19:36;1.45;;;1.35;;
41139;SDS011;26881;48.784;9.192;2023-11-21T12:24:59;1.20;;;0.90;;
41139;SDS011;26881;48.784;9.192;2023-11-21T12:30:23;1.70;;;1.00;;
41139;SDS011;26881;48.784;9.192;2023-11-21T12:35:46;1.00;;;1.00;;
41139;SDS011;26881;48.784;9.192;2023-11-21T12:41:09;1.65;;;0.70;;
41139;SDS011;26881;48.784;9.192;2023-11-21T12:46:31;0.90;;;0.75;;
41139;SDS011;26881;48.784;9.192;2023-11-21T12:51:55;0.73;;;0.73;;
41139;SDS011;26881;48.784;9.192;2023-11-21T12:57:17;0.80;;;0.80;;
41139;SDS011;26881;48.784;9.192;2023-11-21T13:02:42;0.90;;;0.90;;
41139;SDS011;26881;48.784;9.192;2023-11-21T13:08:05;1.52;;;1.30;;
41139;SDS011;26881;48.784;9.192;2023-11-21T13:13:33;1.50;;;1.40;;
41139;SDS011;26881;48.784;9.192;2023-11-21T13:18:55;2.63;;;1.80;;
41139;SDS011;26881;48.784;9.192;2023-11-21T13:24:17;2.47;;;1.88;;
41139;SDS011;26881;48.784;9.192;2023-11-21T13:29:39;1.23;;;0.98;;
41139;SDS011;26881;48.784;9.192;2023-11-21T13:35:01;1.50;;;1.15;;
41139;SDS011;26881;48.784;9.192;2023-11-21T13:40:23;2.92;;;1.50;;
41139;SDS011;26881;48.784;9.192;2023-11-21T13:45:48;1.70;;;1.40;;
41139;SDS011;26881;48.784;9.192;2023-11-21T13:51:21;1.90;;;1.48;;
41139;SDS011;26881;48.784;9.192;2023-11-21T13:56:52;2.53;;;1.60;;
41139;SDS011;26881;48.784;9.192;2023-11-21T14:02:13;3.65;;;1.77;;
41139;SDS011;26881;48.784;9.192;2023-11-21T14:07:49;2.28;;;1.88;;
41139;SDS011;26881;48.784;9.192;2023-11-21T14:13:11;2.45;;;2.10;;
41139;SDS011;26881;48.784;9.192;2023-11-21T14:18:33;2.13;;;1.83;;
41139;SDS011;26881;48.784;9.192;2023-11-21T14:24:00;3.58;;;2.20;;
41139;SDS011;26881;48.784;9.192;2023-11-21T14:29:22;3.47;;;2.10;;
41139;SDS011;26881;48.784;9.192;2023-11-21T14:34:45;4.57;;;1.73;;
41139;SDS011;26881;48.784;9.192;2023-11-21T14:40:09;3.05;;;1.85;;
41139;SDS011;26881;48.784;9.192;2023-11-21T14:45:32;2.25;;;1.90;;
41139;SDS011;26881;48.784;9.192;2023-11-21T14:50:55;2.47;;;1.80;;
41139;SDS011;26881;48.784;9.192;2023-11-21T14:56:23;2.67;;;2.10;;
41139;SDS011;26881;48.784;9.192;2023-11-21T15:01:48;4.22;;;1.80;;
41139;SDS011;26881;48.784;9.192;2023-11-21T15:07:17;2.55;;;1.55;;
41139;SDS011;26881;48.784;9.192;2023-11-21T15:12:39;1.60;;;1.50;;
41139;SDS011;26881;48.784;9.192;2023-11-21T15:18:01;2.47;;;1.40;;
41139;SDS011;26881;48.784;9.192;2023-11-21T15:23:24;3.93;;;1.80;;
41139;SDS011;26881;48.784;9.192;2023-11-21T15:28:45;2.00;;;1.80;;
41139;SDS011;26881;48.784;9.192;2023-11-21T15:34:07;3.03;;;2.27;;
41139;SDS011;26881;48.784;9.192;2023-11-21T15:39:30;2.60;;;1.98;;
41139;SDS011;26881;48.784;9.192;2023-11-21T15:44:52;4.80;;;2.40;;
41139;SDS011;26881;48.784;9.192;2023-11-21T15:50:14;3.88;;;3.00;;
41139;SDS011;26881;48.784;9.192;2023-11-21T15:55:37;4.15;;;3.08;;
41139;SDS011;26881;48.784;9.192;2023-11-21T16:01:04;3.22;;;2.92;;
41139;SDS011;26881;48.784;9.192;2023-11-21T16:06:26;5.68;;;3.53;;
41139;SDS011;26881;48.784;9.192;2023-11-21T16:11:50;4.93;;;3.90;;
41139;SDS011;26881;48.784;9.192;2023-11-21T16:17:22;5.07;;;4.00;;
41139;SDS011;26881;48.784;9.192;2023-11-21T16:22:44;4.37;;;3.80;;
41139;SDS011;26881;48.784;9.192;2023-11-21T16:28:07;7.18;;;4.30;;
41139;SDS011;26881;48.784;9.192;2023-11-21T16:33:29;7.45;;;4.80;;
41139;SDS011;26881;48.784;9.192;2023-11-21T16:38:50;5.25;;;4.75;;
41139;SDS011;26881;48.784;9.192;2023-11-21T16:44:16;5.63;;;4.37;;
41139;SDS011;26881;48.784;9.192;2023-11-21T16:49:43;5.93;;;5.18;;
41139;SDS011;26881;48.784;9.192;2023-11-21T16:55:06;6.60;;;5.57;;
41139;SDS011;26881;48.784;9.192;2023-11-21T17:00:30;8.13;;;6.43;;
41139;SDS011;26881;48.784;9.192;2023-11-21T17:05:52;7.57;;;6.03;;
41139;SDS011;26881;48.784;9.192;2023-11-21T17:11:14;9.52;;;7.18;;
41139;SDS011;26881;48.784;9.192;2023-11-21T17:16:36;8.88;;;7.32;;
41139;SDS011;26881;48.784;9.192;2023-11-21T17:21:58;9.23;;;7.57;;
41139;SDS011;26881;48.784;9.192;2023-11-21T17:27:20;9.47;;;8.17;;
41139;SDS011;26881;48.784;9.192;2023-11-21T17:32:43;10.20;;;8.40;;
41139;SDS011;26881;48.784;9.192;2023-11-21T17:38:06;9.80;;;8.50;;
41139;SDS011;26881;48.784;9.192;2023-11-21T17:43:28;10.67;;;8.83;;
41139;SDS011;26881;48.784;9.192;2023-11-21T17:48:50;10.33;;;9.10;;
41139;SDS011;26881;48.784;9.192;2023-11-21T17:54:15;10.60;;;8.97;;
41139;SDS011;26881;48.784;9.192;2023-11-21T17:59:39;10.83;;;9.63;;
41139;SDS011;26881;48.784;9.192;2023-11-21T18:05:01;15.63;;;9.37;;
41139;SDS011;26881;48.784;9.192;2023-11-21T18:10:26;11.37;;;8.90;;
41139;SDS011;26881;48.784;9.192;2023-11-21T18:15:48;10.57;;;8.50;;
41139;SDS011;26881;48.784;9.192;2023-11-21T18:21:10;10.07;;;8.63;;
41139;SDS011;26881;48.784;9.192;2023-11-21T18:26:32;10.97;;;8.77;;
41139;SDS011;26881;48.784;9.192;2023-11-21T18:31:54;11.90;;;8.30;;
41139;SDS011;26881;48.784;9.192;2023-11-21T18:37:16;10.20;;;8.70;;
41139;SDS011;26881;48.784;9.192;2023-11-21T18:42:38;9.98;;;7.80;;
41139;SDS011;26881;48.784;9.192;2023-11-21T18:48:03;9.87;;;7.57;;
41139;SDS011;26881;48.784;9.192;2023-11-21T18:53:25;10.07;;;7.47;;
41139;SDS011;26881;48.784;9.192;2023-11-21T18:58:50;9.77;;;7.27;;
41139;SDS011;26881;48.784;9.192;2023-11-21T19:04:12;8.73;;;7.07;;
41139;SDS011;26881;48.784;9.192;2023-11-21T19:09:36;12.68;;;7.47;;
41139;SDS011;26881;48.784;9.192;2023-11-21T19:14:58;9.93;;;7.43;;
41139;SDS011;26881;48.784;9.192;2023-11-21T19:20:20;9.10;;;6.97;;
41139;SDS011;26881;48.784;9.192;2023-11-21T19:25:44;9.10;;;7.17;;
41139;SDS011;26881;48.784;9.192;2023-11-21T19:31:11;8.27;;;7.47;;
41139;SDS011;26881;48.784;9.192;2023-11-21T19:36:39;11.93;;;7.63;;
41139;SDS011;26881;48.784;9.192;2023-11-21T19:42:02;11.80;;;7.67;;
41139;SDS011;26881;48.784;9.192;2023-11-21T19:47:25;10.07;;;7.23;;
41139;SDS011;26881;48.784;9.192;2023-11-21T19:52:46;11.17;;;8.27;;
41139;SDS011;26881;48.784;9.192;2023-11-21T19:58:08;12.73;;;7.53;;
41139;SDS011;26881;48.784;9.192;2023-11-21T20:03:32;10.83;;;7.87;;
41139;SDS011;26881;48.784;9.192;2023-11-21T20:08:56;12.60;;;8.47;;
41139;SDS011;26881;48.784;9.192;2023-11-21T20:14:21;13.37;;;8.80;;
41139;SDS011;26881;48.784;9.192;2023-11-21T20:19:43;14.33;;;8.17;;
41139;SDS011;26881;48.784;9.192;2023-11-21T20:25:05;13.37;;;7.73;;
41139;SDS011;26881;48.784;9.192;2023-11-21T20:30:28;11.00;;;7.87;;
41139;SDS011;26881;48.784;9.192;2023-11-21T20:35:52;14.63;;;7.57;;
41139;SDS011;26881;48.784;9.192;2023-11-21T20:41:14;12.70;;;8.10;;
41139;SDS011;26881;48.784;9.192;2023-11-21T20:46:40;15.53;;;8.23;;
41139;SDS011;26881;48.784;9.192;2023-11-21T20:52:05;16.03;;;8.87;;
41139;SDS011;26881;48.784;9.192;2023-11-21T20:57:27;11.53;;;7.77;;
41139;SDS011;26881;48.784;9.192;2023-11-21T21:02:50;16.87;;;7.67;;
41139;SDS011;26881;48.784;9.192;2023-11-21T21:08:14;15.63;;;8.17;;
41139;SDS011;26881;48.784;9.192;2023-11-21T21:13:36;16.83;;;7.80;;
41139;SDS011;26881;48.784;9.192;2023-11-21T21:18:58;14.80;;;7.97;;
41139;SDS011;26881;48.784;9.192;2023-11-21T21:24:24;16.43;;;8.40;;
41139;SDS011;26881;48.784;9.192;2023-11-21T21:29:46;17.10;;;8.90;;
41139;SDS011;26881;48.784;9.192;2023-11-21T21:35:08;18.97;;;8.20;;
41139;SDS011;26881;48.784;9.192;2023-11-21T21:40:30;20.37;;;8.70;;
41139;SDS011;26881;48.784;9.192;2023-11-21T21:45:53;10.70;;;8.93;;
41139;SDS011;26881;48.784;9.192;2023-11-21T21:51:16;13.70;;;9.00;;
41139;SDS011;26881;48.784;9.192;2023-11-21T21:56:38;17.57;;;9.50;;
41139;SDS011;26881;48.784;9.192;2023-11-21T22:02:00;15.67;;;9.77;;
41139;SDS011;26881;48.784;9.192;2023-11-21T22:07:22;17.70;;;9.73;;
41139;SDS011;26881;48.784;9.192;2023-11-21T22:12:44;15.47;;;10.07;;
41139;SDS011;26881;48.784;9.192;2023-11-21T22:18:06;20.70;;;10.65;;
41139;SDS011;26881;48.784;9.192;2023-11-21T22:23:28;21.63;;;10.83;;
41139;SDS011;26881;48.784;9.192;2023-11-21T22:28:50;21.77;;;10.67;;
41139;SDS011;26881;48.784;9.192;2023-11-21T22:34:12;18.67;;;10.65;;
41139;SDS011;26881;48.784;9.192;2023-11-21T22:39:34;21.63;;;10.20;;
41139;SDS011;26881;48.784;9.192;2023-11-21T22:44:56;17.60;;;11.13;;
41139;SDS011;26881;48.784;9.192;2023-11-21T22:50:18;18.07;;;10.07;;
41139;SDS011;26881;48.784;9.192;2023-11-21T22:55:40;15.70;;;10.40;;
41139;SDS011;26881;48.784;9.192;2023-11-21T23:01:02;17.97;;;11.03;;
41139;SDS011;26881;48.784;9.192;2023-11-21T23:06:24;12.33;;;10.20;;
41139;SDS011;26881;48.784;9.192;2023-11-21T23:11:45;17.73;;;10.70;;
41139;SDS011;26881;48.784;9.192;2023-11-21T23:17:07;17.73;;;10.60;;
41139;SDS011;26881;48.784;9.192;2023-11-21T23:22:29;18.00;;;10.70;;
41139;SDS011;26881;48.784;9.192;2023-11-21T23:27:54;20.13;;;10.63;;
41139;SDS011;26881;48.784;9.192;2023-11-21T23:33:16;15.77;;;10.90;;
41139;SDS011;26881;48.784;9.192;2023-11-21T23:38:38;13.80;;;9.77;;
41139;SDS011;26881;48.784;9.192;2023-11-21T23:44:03;15.60;;;10.38;;
41139;SDS011;26881;48.784;9.192;2023-11-21T23:49:26;15.40;;;10.70;;
41139;SDS011;26881;48.784;9.192;2023-11-21T23:54:48;19.53;;;11.13;;
